Time;durP1;ratioP1;P1;durP2;ratioP2;P2;SDS_P1;SDS_P2;PMS_P1;PMS_P2;Temp;Humidity;BMP_temperature;BMP_pressure;BME280_temperature;BME280_humidity;BME280_pressure;Samples;Min_cycle;Max_cycle;Signal;HPM_P1;HPM_P2
2023/06/29 00:01:25;;;;;;;10.43;7.97;;;21.80;78.40;;;;;;5082859;28;20029;-68
2023/06/29 00:03:50;;;;;;;9.55;8.20;;;21.90;78.30;;;;;;5077366;28;20023;-68
2023/06/29 00:06:17;;;;;;;10.48;8.13;;;21.90;78.10;;;;;;5088098;28;20024;-68
2023/06/29 00:08:43;;;;;;;10.45;8.27;;;21.90;78.10;;;;;;5075555;28;20027;-68
2023/06/29 00:11:09;;;;;;;11.73;8.75;;;21.80;78.20;;;;;;5086803;28;20024;-68
2023/06/29 00:13:35;;;;;;;11.60;9.32;;;21.80;78.30;;;;;;5089326;28;20013;-68
2023/06/29 00:16:01;;;;;;;10.00;8.07;;;21.70;78.50;;;;;;5084771;28;20028;-68
2023/06/29 00:18:30;;;;;;;10.93;8.32;;;21.70;78.50;;;;;;5081679;28;20020;-68
2023/06/29 00:20:56;;;;;;;10.77;8.23;;;21.70;78.50;;;;;;5076655;28;20032;-68
2023/06/29 00:23:22;;;;;;;10.55;8.25;;;21.70;78.50;;;;;;5073583;28;20056;-68
2023/06/29 00:25:47;;;;;;;10.48;8.68;;;21.60;78.70;;;;;;5080349;28;20048;-68
2023/06/29 00:28:16;;;;;;;9.65;8.15;;;21.60;78.70;;;;;;5084531;28;20090;-68
2023/06/29 00:30:41;;;;;;;11.38;9.30;;;21.60;78.80;;;;;;5075028;28;20115;-68
2023/06/29 00:33:07;;;;;;;10.63;8.77;;;21.50;79.00;;;;;;5083449;28;20059;-68
2023/06/29 00:35:32;;;;;;;9.75;8.00;;;21.50;79.00;;;;;;5085993;28;20023;-68
2023/06/29 00:37:58;;;;;;;10.30;8.52;;;21.50;79.00;;;;;;5081874;28;20526;-68
2023/06/29 00:40:24;;;;;;;10.30;8.80;;;21.50;79.10;;;;;;5080632;28;20032;-68
2023/06/29 00:42:49;;;;;;;11.15;9.45;;;21.50;79.10;;;;;;5087850;28;20051;-68
2023/06/29 00:45:16;;;;;;;10.95;8.98;;;21.40;79.10;;;;;;5107649;28;20106;-69
2023/06/29 00:47:42;;;;;;;11.80;8.93;;;21.40;79.10;;;;;;5085886;28;20032;-69
2023/06/29 00:50:08;;;;;;;10.75;8.65;;;21.40;79.30;;;;;;5079763;28;20085;-69
2023/06/29 00:52:34;;;;;;;11.70;9.15;;;21.30;79.40;;;;;;5086109;28;20025;-69
2023/06/29 00:55:00;;;;;;;11.00;8.75;;;21.30;79.50;;;;;;5096027;28;20494;-69
2023/06/29 00:57:26;;;;;;;10.20;8.55;;;21.30;79.40;;;;;;5090833;28;20028;-69
2023/06/29 00:59:51;;;;;;;13.32;8.55;;;21.30;79.60;;;;;;5081445;28;20028;-69
2023/06/29 01:02:17;;;;;;;9.55;7.90;;;21.20;79.70;;;;;;5081480;28;20110;-69
2023/06/29 01:04:45;;;;;;;10.27;8.77;;;21.20;80.00;;;;;;5078953;28;20491;-69
2023/06/29 01:07:39;;;;;;;10.77;8.27;;;21.10;80.10;;;;;;5088490;28;20107;-69
2023/06/29 01:10:07;;;;;;;10.70;8.27;;;21.10;80.40;;;;;;5079768;28;20115;-68
2023/06/29 01:12:33;;;;;;;11.05;8.52;;;21.10;80.30;;;;;;5081535;28;20027;-68
2023/06/29 01:14:59;;;;;;;10.98;8.95;;;21.10;80.20;;;;;;5087733;28;20016;-68
2023/06/29 01:17:28;;;;;;;11.18;9.02;;;21.10;80.00;;;;;;5077331;28;20024;-68
2023/06/29 01:19:55;;;;;;;12.63;9.25;;;21.20;80.00;;;;;;5081998;28;20161;-68
2023/06/29 01:22:27;;;;;;;9.98;8.60;;;21.20;80.00;;;;;;5089658;28;20016;-68
2023/06/29 01:24:53;;;;;;;10.80;8.60;;;21.10;80.00;;;;;;5078823;28;20048;-68
2023/06/29 01:27:21;;;;;;;10.77;8.57;;;21.10;80.00;;;;;;5080190;28;20090;-68
2023/06/29 01:29:47;;;;;;;11.35;8.77;;;21.10;80.10;;;;;;5098921;28;20020;-68
2023/06/29 01:32:14;;;;;;;12.02;9.32;;;21.10;80.00;;;;;;5082503;28;20536;-67
2023/06/29 01:34:40;;;;;;;10.82;9.10;;;21.20;80.00;;;;;;5081907;28;20421;-67
2023/06/29 01:37:17;;;;;;;11.63;8.70;;;21.10;80.00;;;;;;5101689;28;20033;-67
2023/06/29 01:39:58;;;;;;;12.77;9.93;;;21.20;80.00;;;;;;5081247;28;20129;-67
2023/06/29 01:42:25;;;;;;;14.00;10.05;;;21.20;80.10;;;;;;5086827;28;20034;-67
2023/06/29 01:44:53;;;;;;;12.65;9.80;;;21.20;80.00;;;;;;5090324;28;20021;-67
2023/06/29 01:47:20;;;;;;;12.05;9.55;;;21.20;80.10;;;;;;5088996;28;20028;-66
2023/06/29 01:49:46;;;;;;;11.52;9.77;;;21.20;80.10;;;;;;5076103;28;20048;-66
2023/06/29 01:52:12;;;;;;;11.50;9.30;;;21.20;80.10;;;;;;5099647;28;20053;-66
2023/06/29 01:54:37;;;;;;;12.10;10.20;;;21.30;80.10;;;;;;5089054;28;20016;-67
2023/06/29 01:57:06;;;;;;;12.05;10.48;;;21.30;80.10;;;;;;5083015;28;20028;-67
2023/06/29 01:59:32;;;;;;;10.80;9.45;;;21.30;80.20;;;;;;5089468;28;20030;-68
2023/06/29 02:01:58;;;;;;;12.82;10.60;;;21.30;80.10;;;;;;5074173;28;20021;-68
2023/06/29 02:04:23;;;;;;;12.73;10.48;;;21.40;80.20;;;;;;5092584;28;20092;-68
2023/06/29 02:06:49;;;;;;;12.23;10.10;;;21.40;80.20;;;;;;5104645;28;20024;-68
2023/06/29 02:09:14;;;;;;;13.68;10.30;;;21.40;80.30;;;;;;5078175;28;20385;-68
2023/06/29 02:11:40;;;;;;;15.48;11.48;;;21.40;80.40;;;;;;5083097;28;20012;-68
2023/06/29 02:14:06;;;;;;;17.85;13.50;;;21.40;80.50;;;;;;5082180;28;20104;-68
2023/06/29 02:16:32;;;;;;;16.67;13.35;;;21.30;80.90;;;;;;5078272;28;20062;-67
2023/06/29 02:18:57;;;;;;;13.75;11.43;;;21.20;81.30;;;;;;5073862;28;20021;-68
2023/06/29 02:21:23;;;;;;;14.02;11.75;;;21.20;81.40;;;;;;5079987;28;20020;-68
2023/06/29 02:23:48;;;;;;;15.48;12.50;;;21.10;81.50;;;;;;5085503;28;20021;-68
2023/06/29 02:26:14;;;;;;;16.70;13.27;;;21.20;81.70;;;;;;5077258;28;20095;-67
2023/06/29 02:28:39;;;;;;;15.68;12.05;;;21.10;81.90;;;;;;5079878;28;20383;-67
2023/06/29 02:31:05;;;;;;;14.50;11.48;;;21.10;81.90;;;;;;5081827;28;20104;-67
2023/06/29 02:33:31;;;;;;;16.55;13.60;;;21.20;82.00;;;;;;5081362;28;20027;-67
2023/06/29 02:35:56;;;;;;;14.73;11.88;;;21.10;82.20;;;;;;5076398;28;20036;-67
2023/06/29 02:38:22;;;;;;;15.15;11.57;;;21.10;82.20;;;;;;5077042;28;20069;-68
2023/06/29 02:40:47;;;;;;;13.60;11.15;;;21.10;82.10;;;;;;5079878;28;20506;-67
2023/06/29 02:43:15;;;;;;;12.68;10.63;;;21.20;82.10;;;;;;5088316;28;20067;-67
2023/06/29 02:45:40;;;;;;;13.23;10.43;;;21.30;82.10;;;;;;5086195;28;20024;-68
2023/06/29 02:48:06;;;;;;;14.18;10.80;;;21.30;81.90;;;;;;5070759;28;20081;-68
2023/06/29 02:50:31;;;;;;;13.50;10.88;;;21.40;81.80;;;;;;5088261;28;20149;-67
2023/06/29 02:52:57;;;;;;;12.60;10.15;;;21.30;81.60;;;;;;5092303;28;20153;-67
2023/06/29 02:55:23;;;;;;;12.85;10.68;;;21.40;81.70;;;;;;5093206;28;20024;-67
2023/06/29 02:57:49;;;;;;;13.02;10.73;;;21.40;81.70;;;;;;5088041;28;20032;-67
2023/06/29 03:00:15;;;;;;;16.08;11.35;;;21.40;81.80;;;;;;5075225;28;20032;-68
2023/06/29 03:02:40;;;;;;;13.20;10.73;;;21.30;81.80;;;;;;5087929;28;20141;-68
2023/06/29 03:05:06;;;;;;;13.48;10.68;;;21.40;81.90;;;;;;5083636;28;20102;-68
2023/06/29 03:07:32;;;;;;;13.52;10.52;;;21.40;81.90;;;;;;5088512;28;20376;-68
2023/06/29 03:09:58;;;;;;;13.88;10.82;;;21.30;82.00;;;;;;5077938;28;20078;-68
2023/06/29 03:12:24;;;;;;;13.00;10.60;;;21.40;81.90;;;;;;5075614;28;20459;-67
2023/06/29 03:14:50;;;;;;;14.43;10.80;;;21.40;81.90;;;;;;5079793;28;20092;-67
2023/06/29 03:17:16;;;;;;;13.80;11.00;;;21.40;81.80;;;;;;5085239;28;20032;-67
2023/06/29 03:19:41;;;;;;;12.38;10.25;;;21.50;81.70;;;;;;5078316;28;20024;-67
2023/06/29 03:22:07;;;;;;;12.50;9.68;;;21.50;81.70;;;;;;5082807;28;20037;-67
2023/06/29 03:24:32;;;;;;;13.02;11.10;;;21.50;81.80;;;;;;5086094;28;20474;-67
2023/06/29 03:26:58;;;;;;;13.32;10.85;;;21.50;81.80;;;;;;5086302;28;20056;-68
2023/06/29 03:29:24;;;;;;;13.85;11.40;;;21.50;81.90;;;;;;5082650;28;20032;-67
2023/06/29 03:31:49;;;;;;;14.73;12.40;;;21.40;82.00;;;;;;5076015;28;20027;-68
2023/06/29 03:34:15;;;;;;;15.70;12.63;;;21.40;82.20;;;;;;5103645;28;20020;-68
2023/06/29 03:36:40;;;;;;;14.43;11.30;;;21.40;82.30;;;;;;5087496;28;20044;-69
2023/06/29 03:39:06;;;;;;;13.30;11.57;;;21.40;82.40;;;;;;5085519;28;20019;-68
2023/06/29 03:41:32;;;;;;;14.93;11.73;;;21.40;82.40;;;;;;5081343;28;20428;-68
2023/06/29 03:43:57;;;;;;;15.77;12.38;;;21.40;82.40;;;;;;5090369;28;20064;-68
2023/06/29 03:46:24;;;;;;;15.27;11.73;;;21.40;83.00;;;;;;5074353;28;20029;-68
2023/06/29 03:48:49;;;;;;;16.00;12.50;;;21.40;83.00;;;;;;5089445;28;20028;-68
2023/06/29 03:51:15;;;;;;;15.32;12.32;;;21.40;82.50;;;;;;5084550;28;20673;-68
2023/06/29 03:53:40;;;;;;;13.75;11.57;;;21.40;82.50;;;;;;5077772;28;20027;-68
2023/06/29 03:56:06;;;;;;;13.90;10.55;;;21.40;82.50;;;;;;5080663;28;20025;-69
2023/06/29 03:58:32;;;;;;;15.73;12.88;;;21.50;82.50;;;;;;5092497;28;20040;-68
2023/06/29 04:00:57;;;;;;;14.68;12.20;;;21.50;82.50;;;;;;5086469;28;20043;-68
2023/06/29 04:03:23;;;;;;;15.30;12.50;;;21.50;82.60;;;;;;5084419;28;20276;-68
2023/06/29 04:05:48;;;;;;;14.30;11.35;;;21.50;82.60;;;;;;5081156;28;20042;-68
2023/06/29 04:08:14;;;;;;;14.00;11.32;;;21.50;82.60;;;;;;5074970;28;20517;-68
2023/06/29 04:10:40;;;;;;;13.23;10.95;;;21.60;82.50;;;;;;5087384;28;20032;-68
2023/06/29 04:13:05;;;;;;;15.57;13.23;;;21.50;82.50;;;;;;5086123;28;20095;-67
2023/06/29 04:15:31;;;;;;;14.48;12.57;;;21.50;82.60;;;;;;5094202;28;20016;-67
2023/06/29 04:17:57;;;;;;;14.52;12.23;;;21.50;82.70;;;;;;5089001;28;20031;-67
2023/06/29 04:20:22;;;;;;;13.88;12.15;;;21.50;82.90;;;;;;5074930;28;20434;-67
2023/06/29 04:22:48;;;;;;;12.95;11.02;;;21.50;82.80;;;;;;5083090;28;20030;-68
2023/06/29 04:25:14;;;;;;;16.45;12.68;;;21.60;83.50;;;;;;5080822;28;20612;-67
2023/06/29 04:27:40;;;;;;;14.18;12.35;;;21.60;82.90;;;;;;5074973;28;20025;-67
2023/06/29 04:30:08;;;;;;;16.65;13.32;;;21.60;83.00;;;;;;5089000;28;20031;-68
2023/06/29 04:32:35;;;;;;;14.25;12.07;;;21.50;83.70;;;;;;5074770;28;20093;-67
2023/06/29 04:35:01;;;;;;;17.52;13.73;;;21.50;83.00;;;;;;5091248;28;20424;-67
2023/06/29 04:37:35;;;;;;;15.55;12.40;;;21.50;83.20;;;;;;5080844;28;20016;-67
2023/06/29 04:40:01;;;;;;;13.85;11.65;;;21.50;83.20;;;;;;5078674;28;20036;-67
2023/06/29 04:42:30;;;;;;;12.88;11.30;;;21.60;83.20;;;;;;5079913;28;20170;-67
2023/06/29 04:44:56;;;;;;;14.65;11.60;;;21.60;83.10;;;;;;5079845;28;20111;-68
2023/06/29 04:47:21;;;;;;;14.65;12.15;;;21.60;83.10;;;;;;5088013;28;21714;-68
2023/06/29 04:49:51;;;;;;;14.23;11.05;;;21.60;83.00;;;;;;5088343;28;20035;-68
2023/06/29 04:52:18;;;;;;;14.32;10.95;;;21.70;82.90;;;;;;5087093;28;20077;-69
2023/06/29 04:54:44;;;;;;;13.52;11.35;;;21.70;82.80;;;;;;5083465;28;20383;-69
2023/06/29 04:57:12;;;;;;;13.30;11.40;;;21.70;82.70;;;;;;5090343;28;20034;-69
2023/06/29 04:59:38;;;;;;;14.10;11.05;;;21.80;82.60;;;;;;5087303;28;20028;-70
2023/06/29 05:02:04;;;;;;;14.48;12.23;;;21.80;82.50;;;;;;5077530;28;20085;-70
2023/06/29 05:04:30;;;;;;;16.10;12.70;;;21.80;82.50;;;;;;5086396;28;20030;-70
2023/06/29 05:06:55;;;;;;;14.52;12.07;;;21.80;82.70;;;;;;5089531;28;20024;-70
2023/06/29 05:09:21;;;;;;;15.88;13.63;;;21.70;82.70;;;;;;5074212;28;20060;-70
2023/06/29 05:11:47;;;;;;;14.45;11.35;;;21.70;82.80;;;;;;5079650;28;20020;-68
2023/06/29 05:14:12;;;;;;;13.10;10.57;;;21.80;82.80;;;;;;5083072;28;20024;-69
2023/06/29 05:16:38;;;;;;;13.20;10.50;;;21.80;82.70;;;;;;5089236;28;20023;-69
2023/06/29 05:19:04;;;;;;;15.02;11.27;;;21.80;82.50;;;;;;5091511;28;20063;-69
2023/06/29 05:21:29;;;;;;;16.85;13.45;;;21.90;82.50;;;;;;5081929;28;20020;-69
2023/06/29 05:23:55;;;;;;;15.02;12.55;;;21.90;82.50;;;;;;5070827;28;20017;-69
2023/06/29 05:26:21;;;;;;;18.10;14.38;;;21.80;82.60;;;;;;5077149;28;20080;-69
2023/06/29 05:28:46;;;;;;;16.02;12.68;;;21.80;82.70;;;;;;5093616;28;20023;-69
2023/06/29 05:31:12;;;;;;;15.15;12.30;;;21.80;82.80;;;;;;5082571;28;20120;-70
2023/06/29 05:33:40;;;;;;;15.77;13.15;;;21.80;82.70;;;;;;5080524;28;20032;-69
2023/06/29 05:36:06;;;;;;;14.18;11.50;;;21.80;82.80;;;;;;5082434;28;20023;-69
2023/06/29 05:38:31;;;;;;;16.00;13.45;;;21.90;82.80;;;;;;5078078;28;20494;-69
2023/06/29 05:40:57;;;;;;;17.65;14.02;;;21.90;82.80;;;;;;5078195;28;20028;-70
2023/06/29 05:43:22;;;;;;;17.95;14.18;;;21.90;82.80;;;;;;5077565;28;20020;-69
2023/06/29 05:45:49;;;;;;;19.35;14.25;;;21.90;82.90;;;;;;5081306;28;20485;-70
2023/06/29 05:48:14;;;;;;;17.60;13.30;;;21.90;82.80;;;;;;5078817;28;20028;-70
2023/06/29 05:50:40;;;;;;;19.92;14.95;;;21.90;82.80;;;;;;5089477;28;20028;-69
2023/06/29 05:53:05;;;;;;;19.30;15.48;;;22.00;82.70;;;;;;5083666;28;20390;-69
2023/06/29 05:55:31;;;;;;;22.85;17.52;;;22.00;82.70;;;;;;5085112;28;20110;-69
2023/06/29 05:57:57;;;;;;;20.05;15.85;;;22.00;82.70;;;;;;5102718;28;20024;-69
2023/06/29 06:00:23;;;;;;;18.60;15.48;;;22.00;82.90;;;;;;5102141;28;20031;-69
2023/06/29 06:02:48;;;;;;;17.55;14.15;;;22.00;83.00;;;;;;5105384;28;21202;-69
2023/06/29 06:05:14;;;;;;;17.30;13.23;;;22.00;83.00;;;;;;5100899;28;20036;-69
2023/06/29 06:07:40;;;;;;;19.02;15.18;;;22.10;82.90;;;;;;5096906;28;20020;-69
2023/06/29 06:10:05;;;;;;;21.45;16.40;;;22.10;82.90;;;;;;5086914;28;20059;-69
2023/06/29 06:12:31;;;;;;;16.83;12.90;;;22.10;82.90;;;;;;5097019;28;20091;-69
2023/06/29 06:14:57;;;;;;;18.60;14.57;;;22.20;82.90;;;;;;5096444;28;20032;-70
2023/06/29 06:17:23;;;;;;;20.52;15.48;;;22.10;83.00;;;;;;5083849;28;20042;-70
2023/06/29 06:19:48;;;;;;;23.23;17.70;;;22.10;83.00;;;;;;5084016;28;20159;-68
2023/06/29 06:22:14;;;;;;;19.83;16.20;;;22.10;83.30;;;;;;5095415;28;20028;-69
2023/06/29 06:24:40;;;;;;;21.23;17.42;;;22.10;83.50;;;;;;5099411;28;20093;-69
2023/06/29 06:27:06;;;;;;;21.77;17.08;;;22.00;83.50;;;;;;5085288;28;20020;-69
2023/06/29 06:29:32;;;;;;;23.67;18.10;;;22.00;83.50;;;;;;5081413;28;20469;-69
2023/06/29 06:31:58;;;;;;;18.50;15.18;;;21.90;83.50;;;;;;5087244;28;20036;-69
2023/06/29 06:34:23;;;;;;;22.75;18.33;;;21.90;83.60;;;;;;5096168;28;20034;-69
2023/06/29 06:36:49;;;;;;;25.88;19.40;;;21.90;83.70;;;;;;5110629;28;20019;-69
2023/06/29 06:39:15;;;;;;;23.58;17.42;;;21.90;83.80;;;;;;5098140;28;20448;-69
2023/06/29 06:41:41;;;;;;;25.20;19.95;;;21.80;83.90;;;;;;5090006;28;20032;-69
2023/06/29 06:44:07;;;;;;;26.48;19.88;;;21.80;84.10;;;;;;5096839;28;20040;-69
2023/06/29 06:46:33;;;;;;;27.73;21.35;;;21.70;84.30;;;;;;5110654;28;20094;-69
2023/06/29 06:48:58;;;;;;;20.58;16.42;;;21.70;84.50;;;;;;5110396;28;20044;-69
2023/06/29 06:51:25;;;;;;;22.55;17.52;;;21.70;84.60;;;;;;5091138;28;20034;-69
2023/06/29 06:53:51;;;;;;;26.52;20.02;;;21.80;84.50;;;;;;5087183;28;20020;-69
2023/06/29 06:56:16;;;;;;;25.17;19.75;;;21.70;84.60;;;;;;5077601;28;20020;-69
2023/06/29 06:58:43;;;;;;;20.67;15.73;;;21.80;84.50;;;;;;5086104;28;20027;-69
2023/06/29 07:01:09;;;;;;;21.00;15.18;;;21.80;84.30;;;;;;5093325;28;20058;-69
2023/06/29 07:03:34;;;;;;;17.85;13.07;;;21.90;84.10;;;;;;5090462;28;20024;-69
2023/06/29 07:06:00;;;;;;;18.30;14.55;;;22.00;83.90;;;;;;5096086;28;20049;-69
2023/06/29 07:08:25;;;;;;;20.27;16.33;;;22.10;83.70;;;;;;5091598;28;20107;-69
2023/06/29 07:10:51;;;;;;;17.60;13.77;;;22.10;83.40;;;;;;5103982;28;20083;-69
2023/06/29 07:13:18;;;;;;;16.15;13.32;;;22.20;83.20;;;;;;5096014;28;20103;-69
2023/06/29 07:15:45;;;;;;;24.63;18.58;;;22.30;83.00;;;;;;5095888;28;20015;-70
2023/06/29 07:18:11;;;;;;;18.83;14.50;;;22.40;82.70;;;;;;5084951;28;20414;-69
2023/06/29 07:20:36;;;;;;;23.25;16.45;;;22.40;82.40;;;;;;5075429;28;20025;-69
2023/06/29 07:23:02;;;;;;;21.30;15.63;;;22.40;81.90;;;;;;5073670;28;20040;-69
2023/06/29 07:25:28;;;;;;;18.45;14.02;;;22.40;81.70;;;;;;5094497;28;20028;-69
2023/06/29 07:27:54;;;;;;;23.33;17.10;;;22.40;81.50;;;;;;5085977;28;20042;-69
2023/06/29 07:30:20;;;;;;;22.25;16.67;;;22.50;81.20;;;;;;5108011;28;20563;-69
2023/06/29 07:32:45;;;;;;;21.60;17.20;;;22.40;80.80;;;;;;5093926;28;20020;-69
2023/06/29 07:35:13;;;;;;;19.13;15.23;;;22.40;80.70;;;;;;5096023;28;20040;-69
2023/06/29 07:37:39;;;;;;;21.25;16.40;;;22.40;80.60;;;;;;5092876;28;20048;-69
2023/06/29 07:40:05;;;;;;;17.08;13.55;;;22.40;80.20;;;;;;5107748;28;20119;-69
2023/06/29 07:42:31;;;;;;;17.35;13.63;;;22.40;80.20;;;;;;5098928;28;20028;-69
2023/06/29 07:44:56;;;;;;;16.20;12.55;;;22.60;80.10;;;;;;5097334;28;20022;-69
2023/06/29 07:47:22;;;;;;;14.90;12.00;;;22.70;80.00;;;;;;5097225;28;20393;-69
2023/06/29 07:49:48;;;;;;;20.75;16.05;;;22.80;79.70;;;;;;5104611;28;20055;-69
2023/06/29 07:52:14;;;;;;;19.45;14.70;;;22.80;79.30;;;;;;5092551;28;20526;-68
2023/06/29 07:54:39;;;;;;;16.48;13.27;;;22.80;79.00;;;;;;5097332;28;20023;-69
2023/06/29 07:57:05;;;;;;;16.30;12.98;;;22.80;78.90;;;;;;5088336;28;20024;-69
2023/06/29 07:59:31;;;;;;;18.38;13.77;;;22.80;78.70;;;;;;5085563;28;20028;-68
2023/06/29 08:01:56;;;;;;;19.48;13.88;;;22.90;78.60;;;;;;5087961;28;20074;-69
2023/06/29 08:04:22;;;;;;;26.65;20.67;;;22.90;78.40;;;;;;5081436;28;20016;-69
2023/06/29 08:06:48;;;;;;;21.05;14.60;;;22.80;76.70;;;;;;5082926;28;20016;-69
2023/06/29 08:09:15;;;;;;;17.50;13.95;;;22.80;77.10;;;;;;5084158;28;20104;-69
2023/06/29 08:11:40;;;;;;;16.95;12.60;;;22.80;77.20;;;;;;5084087;28;20446;-69
2023/06/29 08:14:06;;;;;;;17.15;13.50;;;22.90;77.10;;;;;;5082848;28;20087;-69
2023/06/29 08:16:32;;;;;;;18.13;14.52;;;23.00;76.70;;;;;;5087235;28;20089;-69
2023/06/29 08:18:59;;;;;;;20.35;15.50;;;23.10;76.10;;;;;;5089127;28;20101;-68
2023/06/29 08:21:24;;;;;;;16.65;13.02;;;23.10;75.50;;;;;;5083167;28;20032;-69
2023/06/29 08:23:50;;;;;;;15.95;13.05;;;23.30;75.50;;;;;;5080546;28;20078;-69
2023/06/29 08:26:16;;;;;;;16.52;13.15;;;23.40;75.10;;;;;;5085690;28;20086;-69
2023/06/29 08:28:42;;;;;;;15.60;12.07;;;23.50;74.60;;;;;;5082847;27;20375;-69
2023/06/29 08:31:08;;;;;;;15.13;11.82;;;23.60;74.40;;;;;;5090036;28;20024;-69
2023/06/29 08:33:33;;;;;;;19.08;13.82;;;23.70;74.20;;;;;;5085361;28;20024;-69
2023/06/29 08:35:59;;;;;;;18.13;13.95;;;23.90;73.60;;;;;;5083751;28;20426;-69
2023/06/29 08:38:25;;;;;;;16.60;12.35;;;24.10;73.20;;;;;;5083640;28;20147;-69
2023/06/29 08:40:51;;;;;;;15.68;12.40;;;24.30;72.80;;;;;;5081969;28;20019;-69
2023/06/29 08:43:17;;;;;;;18.55;12.73;;;24.60;72.00;;;;;;5084060;28;20482;-69
2023/06/29 08:45:45;;;;;;;23.00;18.20;;;24.80;71.20;;;;;;5083848;28;20100;-69
2023/06/29 08:48:12;;;;;;;20.02;14.75;;;25.00;69.60;;;;;;5085245;28;20506;-69
2023/06/29 08:50:43;;;;;;;15.80;12.40;;;25.00;69.30;;;;;;5079549;28;20020;-69
2023/06/29 08:53:09;;;;;;;17.45;12.88;;;25.10;69.30;;;;;;5080478;28;20032;-69
2023/06/29 08:55:35;;;;;;;16.30;12.75;;;25.20;68.80;;;;;;5088487;28;20018;-70
2023/06/29 08:58:01;;;;;;;17.83;13.20;;;25.30;68.30;;;;;;5089046;28;20062;-69
2023/06/29 09:00:27;;;;;;;17.65;13.43;;;25.40;67.90;;;;;;5088301;28;20035;-69
2023/06/29 09:02:53;;;;;;;16.45;13.02;;;25.60;67.60;;;;;;5094011;28;20089;-69
2023/06/29 09:05:21;;;;;;;16.85;13.75;;;25.70;67.10;;;;;;5094594;28;20028;-69
2023/06/29 09:07:47;;;;;;;15.18;12.10;;;25.60;66.50;;;;;;5092167;28;20028;-67
2023/06/29 09:10:12;;;;;;;17.08;13.25;;;25.60;66.70;;;;;;5086098;28;20020;-67
2023/06/29 09:12:38;;;;;;;16.15;13.00;;;25.70;66.10;;;;;;5094205;28;20058;-67
2023/06/29 09:15:10;;;;;;;15.48;12.85;;;25.60;65.90;;;;;;5086690;28;20442;-69
2023/06/29 09:17:36;;;;;;;14.30;11.43;;;25.60;65.90;;;;;;5093374;28;20028;-69
2023/06/29 09:20:13;;;;;;;16.20;12.80;;;25.70;66.00;;;;;;5087956;28;20028;-69
2023/06/29 09:22:39;;;;;;;16.83;13.38;;;25.80;65.60;;;;;;5093086;28;20032;-69
2023/06/29 09:25:07;;;;;;;14.90;11.85;;;25.70;64.90;;;;;;5094368;28;20046;-69
2023/06/29 09:27:34;;;;;;;18.13;13.68;;;25.80;65.10;;;;;;5094877;28;20504;-69
2023/06/29 09:30:02;;;;;;;15.30;12.35;;;25.90;64.30;;;;;;5087587;28;20426;-69
2023/06/29 09:32:35;;;;;;;13.68;11.20;;;26.00;64.20;;;;;;5086636;28;20056;-69
2023/06/29 09:35:08;;;;;;;13.75;10.88;;;26.10;64.10;;;;;;5091678;28;20051;-69
2023/06/29 09:37:34;;;;;;;15.15;11.13;;;26.40;63.70;;;;;;5087705;28;20020;-69
2023/06/29 09:40:03;;;;;;;14.88;11.52;;;26.40;62.70;;;;;;5087039;28;20103;-68
2023/06/29 09:42:29;;;;;;;15.60;11.93;;;26.50;62.40;;;;;;5094715;28;20389;-68
2023/06/29 09:45:02;;;;;;;14.43;11.50;;;26.60;62.20;;;;;;5086203;28;20077;-68
2023/06/29 09:47:28;;;;;;;14.80;11.50;;;26.80;62.00;;;;;;5091698;28;20034;-68
2023/06/29 09:49:55;;;;;;;22.10;15.25;;;27.00;61.80;;;;;;5093915;28;20402;-67
2023/06/29 09:52:21;;;;;;;16.02;13.00;;;26.90;59.90;;;;;;5095367;28;20606;-68
2023/06/29 09:54:49;;;;;;;17.15;13.68;;;26.80;59.70;;;;;;5088744;28;20386;-67
2023/06/29 09:57:15;;;;;;;17.67;14.32;;;26.90;59.80;;;;;;5086680;28;20055;-68
2023/06/29 09:59:44;;;;;;;17.35;12.88;;;26.90;59.30;;;;;;5089502;28;20050;-67
2023/06/29 10:02:10;;;;;;;15.40;11.85;;;26.90;59.60;;;;;;5091473;28;20023;-68
2023/06/29 10:04:41;;;;;;;15.23;12.20;;;27.00;59.80;;;;;;5088726;28;20034;-68
2023/06/29 10:07:20;;;;;;;17.05;12.30;;;27.10;59.70;;;;;;5089146;28;20544;-68
2023/06/29 10:09:49;;;;;;;13.57;11.18;;;27.20;59.50;;;;;;5092467;28;20050;-70
2023/06/29 10:12:17;;;;;;;14.52;11.52;;;27.20;59.80;;;;;;5088342;28;20016;-68
2023/06/29 10:14:44;;;;;;;13.95;11.32;;;27.20;59.50;;;;;;5086806;28;20016;-68
2023/06/29 10:17:25;;;;;;;13.32;10.32;;;27.30;59.90;;;;;;5090796;28;20056;-68
2023/06/29 10:19:52;;;;;;;14.35;11.35;;;27.50;59.90;;;;;;5092122;28;20023;-68
2023/06/29 10:22:18;;;;;;;14.35;11.65;;;27.40;59.60;;;;;;5093809;28;20057;-68
2023/06/29 10:24:54;;;;;;;15.95;12.75;;;27.30;59.30;;;;;;5090430;28;20020;-68
2023/06/29 10:27:22;;;;;;;17.42;13.40;;;27.20;59.00;;;;;;5089088;28;20561;-68
2023/06/29 10:29:50;;;;;;;13.38;10.85;;;27.00;59.20;;;;;;5091671;28;20077;-68
2023/06/29 10:32:29;;;;;;;15.27;12.18;;;27.00;59.70;;;;;;5093335;28;20038;-68
2023/06/29 10:35:12;;;;;;;13.32;10.52;;;26.90;59.80;;;;;;5089909;28;20066;-68
2023/06/29 10:37:42;;;;;;;14.23;11.48;;;27.00;60.00;;;;;;5087877;28;20026;-68
2023/06/29 10:40:10;;;;;;;15.18;11.73;;;27.20;59.80;;;;;;5096546;28;20026;-68
2023/06/29 10:42:39;;;;;;;13.20;10.43;;;27.30;59.60;;;;;;5087516;28;20077;-68
2023/06/29 10:45:23;;;;;;;13.98;10.98;;;27.40;59.50;;;;;;5092657;28;20039;-68
2023/06/29 10:48:01;;;;;;;12.70;10.52;;;27.60;59.40;;;;;;5082112;28;20032;-70
2023/06/29 10:50:50;;;;;;;15.65;11.82;;;27.70;60.00;;;;;;5086429;28;20035;-68
2023/06/29 10:53:17;;;;;;;18.85;14.18;;;27.80;58.80;;;;;;5082630;28;20489;-68
2023/06/29 10:55:44;;;;;;;15.60;11.63;;;27.80;57.70;;;;;;5088789;28;20008;-68
2023/06/29 10:58:19;;;;;;;18.38;14.15;;;27.60;57.60;;;;;;5089850;28;20026;-68
2023/06/29 11:00:45;;;;;;;15.68;12.95;;;27.60;56.40;;;;;;5087341;28;20028;-68
2023/06/29 11:03:12;;;;;;;15.98;12.48;;;27.50;56.20;;;;;;5087061;28;20032;-68
2023/06/29 11:05:38;;;;;;;13.95;11.43;;;27.40;56.00;;;;;;5082962;28;20027;-68
2023/06/29 11:08:08;;;;;;;13.02;10.38;;;27.50;56.60;;;;;;5081471;28;21127;-68
2023/06/29 11:10:34;;;;;;;11.63;9.82;;;27.50;56.80;;;;;;5087491;28;20039;-68
2023/06/29 11:13:00;;;;;;;11.63;9.45;;;27.60;57.10;;;;;;5077962;28;20021;-68
2023/06/29 11:15:27;;;;;;;14.07;9.93;;;27.60;57.20;;;;;;5088425;28;20016;-68
2023/06/29 11:17:53;;;;;;;12.93;10.20;;;27.60;57.50;;;;;;5089532;28;20024;-68
2023/06/29 11:20:22;;;;;;;12.25;9.45;;;27.60;57.40;;;;;;5091250;28;20028;-70
2023/06/29 11:22:51;;;;;;;14.00;11.50;;;27.60;57.50;;;;;;5089098;28;20039;-70
2023/06/29 11:25:17;;;;;;;14.93;11.60;;;27.60;56.50;;;;;;5091396;28;20382;-70
2023/06/29 11:27:44;;;;;;;12.25;10.38;;;27.40;56.00;;;;;;5089321;28;20028;-70
2023/06/29 11:30:10;;;;;;;17.92;12.90;;;27.20;56.10;;;;;;5089064;28;20031;-70
2023/06/29 11:32:40;;;;;;;13.43;11.07;;;27.10;55.70;;;;;;5092978;28;20030;-70
2023/06/29 11:35:10;;;;;;;15.40;11.07;;;27.10;56.00;;;;;;5087202;28;20020;-68
2023/06/29 11:37:38;;;;;;;14.05;11.25;;;27.20;56.30;;;;;;5086954;28;20414;-68
2023/06/29 11:40:25;;;;;;;15.15;11.80;;;27.30;56.10;;;;;;5093973;28;20030;-68
2023/06/29 11:42:51;;;;;;;16.88;13.60;;;27.40;55.90;;;;;;5086095;28;20460;-68
2023/06/29 11:45:17;;;;;;;16.10;12.98;;;27.50;55.60;;;;;;5100996;28;20078;-68
2023/06/29 11:47:46;;;;;;;15.45;12.73;;;27.40;55.50;;;;;;5094729;28;20031;-68
2023/06/29 11:50:12;;;;;;;15.77;12.68;;;27.50;55.50;;;;;;5090133;28;20106;-68
2023/06/29 11:52:44;;;;;;;14.13;11.73;;;27.50;55.50;;;;;;5091179;28;20419;-68
2023/06/29 11:55:12;;;;;;;14.35;11.57;;;27.60;55.70;;;;;;5094267;28;20105;-68
2023/06/29 11:57:39;;;;;;;14.50;11.73;;;27.80;55.70;;;;;;5091929;28;20475;-68
2023/06/29 12:00:28;;;;;;;14.93;11.75;;;28.00;55.70;;;;;;5088432;28;20095;-68
2023/06/29 12:02:54;;;;;;;19.73;15.75;;;28.10;55.30;;;;;;5100327;28;20026;-69
2023/06/29 12:05:27;;;;;;;16.75;12.88;;;28.20;54.70;;;;;;5086883;28;20147;-68
2023/06/29 12:07:53;;;;;;;17.73;14.63;;;28.20;55.00;;;;;;5096450;28;20012;-68
2023/06/29 12:10:25;;;;;;;16.63;13.43;;;28.30;54.60;;;;;;5087293;28;20690;-68
2023/06/29 12:12:59;;;;;;;17.38;13.82;;;28.30;54.60;;;;;;5088553;28;20363;-70
2023/06/29 12:15:29;;;;;;;16.13;12.63;;;28.20;54.40;;;;;;5086286;28;20028;-68
2023/06/29 12:18:23;;;;;;;17.15;13.48;;;28.30;54.70;;;;;;5099229;28;20052;-68
2023/06/29 12:20:49;;;;;;;15.18;12.68;;;28.30;54.60;;;;;;5084825;28;20405;-68
2023/06/29 12:23:15;;;;;;;19.85;15.05;;;28.30;54.60;;;;;;5094970;28;20032;-68
2023/06/29 12:25:44;;;;;;;17.13;14.60;;;28.30;54.20;;;;;;5094693;28;20058;-68
2023/06/29 12:28:10;;;;;;;16.08;12.90;;;28.20;54.20;;;;;;5093099;28;20380;-68